sensor_id;sensor_type;location;lat;lon;timestamp;P1;durP1;ratioP1;P2;durP2;ratioP2
32152;SDS011;18656;50.580;11.392;2024-02-21T00:00:07;12.45;;;3.45;;
32152;SDS011;18656;50.580;11.392;2024-02-21T00:02:34;13.15;;;3.95;;
32152;SDS011;18656;50.580;11.392;2024-02-21T00:05:01;13.52;;;3.70;;
32152;SDS011;18656;50.580;11.392;2024-02-21T00:07:29;13.48;;;3.33;;
32152;SDS011;18656;50.580;11.392;2024-02-21T00:09:56;14.32;;;3.85;;
32152;SDS011;18656;50.580;11.392;2024-02-21T00:12:24;16.25;;;3.72;;
32152;SDS011;18656;50.580;11.392;2024-02-21T00:14:51;13.38;;;3.92;;
32152;SDS011;18656;50.580;11.392;2024-02-21T00:17:18;14.20;;;3.90;;
32152;SDS011;18656;50.580;11.392;2024-02-21T00:19:45;10.95;;;3.85;;
32152;SDS011;18656;50.580;11.392;2024-02-21T00:22:12;18.42;;;4.38;;
32152;SDS011;18656;50.580;11.392;2024-02-21T00:24:40;10.63;;;4.00;;
32152;SDS011;18656;50.580;11.392;2024-02-21T00:27:08;10.90;;;4.00;;
32152;SDS011;18656;50.580;11.392;2024-02-21T00:29:35;15.23;;;4.22;;
32152;SDS011;18656;50.580;11.392;2024-02-21T00:32:02;19.20;;;4.78;;
32152;SDS011;18656;50.580;11.392;2024-02-21T00:34:29;14.98;;;4.50;;
32152;SDS011;18656;50.580;11.392;2024-02-21T00:36:57;15.57;;;4.50;;
32152;SDS011;18656;50.580;11.392;2024-02-21T00:39:24;15.40;;;4.18;;
32152;SDS011;18656;50.580;11.392;2024-02-21T00:41:51;12.13;;;4.43;;
32152;SDS011;18656;50.580;11.392;2024-02-21T00:44:19;18.38;;;4.30;;
32152;SDS011;18656;50.580;11.392;2024-02-21T00:46:47;18.05;;;4.65;;
32152;SDS011;18656;50.580;11.392;2024-02-21T00:49:14;12.45;;;4.80;;
32152;SDS011;18656;50.580;11.392;2024-02-21T00:51:41;15.02;;;4.47;;
32152;SDS011;18656;50.580;11.392;2024-02-21T00:54:08;14.00;;;4.35;;
32152;SDS011;18656;50.580;11.392;2024-02-21T00:56:35;11.70;;;4.55;;
32152;SDS011;18656;50.580;11.392;2024-02-21T00:59:03;14.63;;;4.35;;
32152;SDS011;18656;50.580;11.392;2024-02-21T01:01:30;13.32;;;4.22;;
32152;SDS011;18656;50.580;11.392;2024-02-21T01:03:57;13.88;;;4.35;;
32152;SDS011;18656;50.580;11.392;2024-02-21T01:06:25;13.65;;;4.72;;
32152;SDS011;18656;50.580;11.392;2024-02-21T01:08:52;11.77;;;4.38;;
32152;SDS011;18656;50.580;11.392;2024-02-21T01:11:19;11.63;;;4.28;;
32152;SDS011;18656;50.580;11.392;2024-02-21T01:13:47;18.70;;;5.18;;
32152;SDS011;18656;50.580;11.392;2024-02-21T01:16:14;11.40;;;4.03;;
32152;SDS011;18656;50.580;11.392;2024-02-21T01:18:41;21.65;;;4.97;;
32152;SDS011;18656;50.580;11.392;2024-02-21T01:21:09;17.00;;;4.43;;
32152;SDS011;18656;50.580;11.392;2024-02-21T01:23:37;11.40;;;4.00;;
32152;SDS011;18656;50.580;11.392;2024-02-21T01:26:04;14.90;;;4.57;;
32152;SDS011;18656;50.580;11.392;2024-02-21T01:28:34;15.20;;;4.40;;
32152;SDS011;18656;50.580;11.392;2024-02-21T01:31:02;11.80;;;4.30;;
32152;SDS011;18656;50.580;11.392;2024-02-21T01:33:30;13.88;;;4.05;;
32152;SDS011;18656;50.580;11.392;2024-02-21T01:36:01;13.77;;;4.22;;
32152;SDS011;18656;50.580;11.392;2024-02-21T01:38:29;15.18;;;4.45;;
32152;SDS011;18656;50.580;11.392;2024-02-21T01:40:58;9.90;;;3.88;;
32152;SDS011;18656;50.580;11.392;2024-02-21T01:43:25;10.73;;;5.05;;
32152;SDS011;18656;50.580;11.392;2024-02-21T01:45:54;12.55;;;4.60;;
32152;SDS011;18656;50.580;11.392;2024-02-21T01:48:22;11.75;;;5.05;;
32152;SDS011;18656;50.580;11.392;2024-02-21T01:50:50;13.60;;;4.68;;
32152;SDS011;18656;50.580;11.392;2024-02-21T01:53:22;16.95;;;4.60;;
32152;SDS011;18656;50.580;11.392;2024-02-21T01:55:49;11.57;;;4.88;;
32152;SDS011;18656;50.580;11.392;2024-02-21T01:58:17;12.55;;;4.03;;
32152;SDS011;18656;50.580;11.392;2024-02-21T02:00:46;14.68;;;4.90;;
32152;SDS011;18656;50.580;11.392;2024-02-21T02:03:14;16.65;;;4.70;;
32152;SDS011;18656;50.580;11.392;2024-02-21T02:05:48;14.25;;;4.55;;
32152;SDS011;18656;50.580;11.392;2024-02-21T02:08:16;13.68;;;4.85;;
32152;SDS011;18656;50.580;11.392;2024-02-21T02:10:44;11.52;;;4.60;;
32152;SDS011;18656;50.580;11.392;2024-02-21T02:13:12;12.20;;;4.65;;
32152;SDS011;18656;50.580;11.392;2024-02-21T02:15:44;13.02;;;4.28;;
32152;SDS011;18656;50.580;11.392;2024-02-21T02:18:12;11.40;;;4.72;;
32152;SDS011;18656;50.580;11.392;2024-02-21T02:20:40;12.43;;;4.65;;
32152;SDS011;18656;50.580;11.392;2024-02-21T02:23:11;9.95;;;4.50;;
32152;SDS011;18656;50.580;11.392;2024-02-21T02:25:39;13.30;;;4.38;;
32152;SDS011;18656;50.580;11.392;2024-02-21T02:28:06;14.20;;;5.00;;
32152;SDS011;18656;50.580;11.392;2024-02-21T02:30:35;11.95;;;4.30;;
32152;SDS011;18656;50.580;11.392;2024-02-21T02:33:05;15.18;;;5.57;;
32152;SDS011;18656;50.580;11.392;2024-02-21T02:35:33;12.98;;;4.65;;
32152;SDS011;18656;50.580;11.392;2024-02-21T02:38:02;13.25;;;4.40;;
32152;SDS011;18656;50.580;11.392;2024-02-21T02:40:30;14.15;;;4.97;;
32152;SDS011;18656;50.580;11.392;2024-02-21T02:42:58;15.60;;;5.13;;
32152;SDS011;18656;50.580;11.392;2024-02-21T02:45:25;15.75;;;4.78;;
32152;SDS011;18656;50.580;11.392;2024-02-21T02:47:53;14.70;;;4.63;;
32152;SDS011;18656;50.580;11.392;2024-02-21T02:50:20;16.33;;;5.38;;
32152;SDS011;18656;50.580;11.392;2024-02-21T02:52:48;15.80;;;5.25;;
32152;SDS011;18656;50.580;11.392;2024-02-21T02:55:15;17.48;;;5.15;;
32152;SDS011;18656;50.580;11.392;2024-02-21T02:57:42;12.00;;;4.78;;
32152;SDS011;18656;50.580;11.392;2024-02-21T03:00:10;12.73;;;4.63;;
32152;SDS011;18656;50.580;11.392;2024-02-21T03:02:38;13.30;;;4.63;;
32152;SDS011;18656;50.580;11.392;2024-02-21T03:05:12;11.43;;;4.00;;
32152;SDS011;18656;50.580;11.392;2024-02-21T03:07:41;15.40;;;4.85;;
32152;SDS011;18656;50.580;11.392;2024-02-21T03:10:09;14.48;;;4.63;;
32152;SDS011;18656;50.580;11.392;2024-02-21T03:12:36;19.35;;;5.07;;
32152;SDS011;18656;50.580;11.392;2024-02-21T03:15:04;11.32;;;4.32;;
32152;SDS011;18656;50.580;11.392;2024-02-21T03:17:32;16.40;;;4.70;;
32152;SDS011;18656;50.580;11.392;2024-02-21T03:20:03;16.10;;;4.85;;
32152;SDS011;18656;50.580;11.392;2024-02-21T03:22:38;13.02;;;4.70;;
32152;SDS011;18656;50.580;11.392;2024-02-21T03:25:07;11.25;;;4.47;;
32152;SDS011;18656;50.580;11.392;2024-02-21T03:27:34;10.65;;;4.32;;
32152;SDS011;18656;50.580;11.392;2024-02-21T03:30:02;14.10;;;4.43;;
32152;SDS011;18656;50.580;11.392;2024-02-21T03:32:30;12.88;;;4.40;;
32152;SDS011;18656;50.580;11.392;2024-02-21T03:34:58;15.10;;;4.85;;
32152;SDS011;18656;50.580;11.392;2024-02-21T03:37:25;12.52;;;4.50;;
32152;SDS011;18656;50.580;11.392;2024-02-21T03:39:53;16.45;;;4.90;;
32152;SDS011;18656;50.580;11.392;2024-02-21T03:42:20;15.80;;;4.25;;
32152;SDS011;18656;50.580;11.392;2024-02-21T03:44:47;11.48;;;4.57;;
32152;SDS011;18656;50.580;11.392;2024-02-21T03:47:14;14.40;;;4.72;;
32152;SDS011;18656;50.580;11.392;2024-02-21T03:49:42;14.55;;;4.80;;
32152;SDS011;18656;50.580;11.392;2024-02-21T03:52:09;11.73;;;4.47;;
32152;SDS011;18656;50.580;11.392;2024-02-21T03:54:36;17.50;;;5.05;;
32152;SDS011;18656;50.580;11.392;2024-02-21T03:57:04;12.75;;;4.97;;
32152;SDS011;18656;50.580;11.392;2024-02-21T03:59:32;12.75;;;4.75;;
32152;SDS011;18656;50.580;11.392;2024-02-21T04:02:00;18.05;;;4.68;;
32152;SDS011;18656;50.580;11.392;2024-02-21T04:04:27;13.15;;;5.13;;
32152;SDS011;18656;50.580;11.392;2024-02-21T04:06:55;12.68;;;4.72;;
32152;SDS011;18656;50.580;11.392;2024-02-21T04:09:22;12.60;;;4.60;;
32152;SDS011;18656;50.580;11.392;2024-02-21T04:11:49;14.18;;;4.72;;
32152;SDS011;18656;50.580;11.392;2024-02-21T04:14:17;8.70;;;3.75;;
32152;SDS011;18656;50.580;11.392;2024-02-21T04:16:45;11.60;;;4.40;;
32152;SDS011;18656;50.580;11.392;2024-02-21T04:19:12;11.82;;;3.88;;
32152;SDS011;18656;50.580;11.392;2024-02-21T04:21:40;11.90;;;4.63;;
32152;SDS011;18656;50.580;11.392;2024-02-21T04:24:07;13.90;;;4.60;;
32152;SDS011;18656;50.580;11.392;2024-02-21T04:26:34;12.75;;;4.70;;
32152;SDS011;18656;50.580;11.392;2024-02-21T04:29:01;13.13;;;4.85;;
32152;SDS011;18656;50.580;11.392;2024-02-21T04:31:29;18.83;;;4.95;;
32152;SDS011;18656;50.580;11.392;2024-02-21T04:33:56;14.55;;;4.88;;
32152;SDS011;18656;50.580;11.392;2024-02-21T04:36:23;15.23;;;4.68;;
32152;SDS011;18656;50.580;11.392;2024-02-21T04:38:51;12.75;;;4.95;;
32152;SDS011;18656;50.580;11.392;2024-02-21T04:41:18;12.02;;;4.95;;
32152;SDS011;18656;50.580;11.392;2024-02-21T04:43:46;11.98;;;4.68;;
32152;SDS011;18656;50.580;11.392;2024-02-21T04:46:14;13.45;;;4.97;;
32152;SDS011;18656;50.580;11.392;2024-02-21T04:48:42;15.40;;;4.93;;
32152;SDS011;18656;50.580;11.392;2024-02-21T04:51:11;14.00;;;5.10;;
32152;SDS011;18656;50.580;11.392;2024-02-21T04:53:39;13.82;;;4.97;;
32152;SDS011;18656;50.580;11.392;2024-02-21T04:56:06;16.27;;;4.82;;
32152;SDS011;18656;50.580;11.392;2024-02-21T04:58:37;13.30;;;5.63;;
32152;SDS011;18656;50.580;11.392;2024-02-21T05:01:04;12.27;;;4.97;;
32152;SDS011;18656;50.580;11.392;2024-02-21T05:03:32;10.65;;;5.18;;
32152;SDS011;18656;50.580;11.392;2024-02-21T05:05:59;15.52;;;5.22;;
32152;SDS011;18656;50.580;11.392;2024-02-21T05:08:27;14.75;;;4.68;;
32152;SDS011;18656;50.580;11.392;2024-02-21T05:10:54;15.18;;;4.53;;
32152;SDS011;18656;50.580;11.392;2024-02-21T05:13:22;14.75;;;4.80;;
32152;SDS011;18656;50.580;11.392;2024-02-21T05:15:49;10.05;;;4.47;;
32152;SDS011;18656;50.580;11.392;2024-02-21T05:18:16;11.55;;;4.38;;
32152;SDS011;18656;50.580;11.392;2024-02-21T05:20:44;10.77;;;4.75;;
32152;SDS011;18656;50.580;11.392;2024-02-21T05:23:11;10.45;;;4.95;;
32152;SDS011;18656;50.580;11.392;2024-02-21T05:25:38;14.00;;;4.93;;
32152;SDS011;18656;50.580;11.392;2024-02-21T05:28:05;7.30;;;4.07;;
32152;SDS011;18656;50.580;11.392;2024-02-21T05:30:33;14.43;;;4.80;;
32152;SDS011;18656;50.580;11.392;2024-02-21T05:33:06;12.35;;;4.32;;
32152;SDS011;18656;50.580;11.392;2024-02-21T05:35:35;15.55;;;4.18;;
32152;SDS011;18656;50.580;11.392;2024-02-21T05:38:03;13.68;;;4.88;;
32152;SDS011;18656;50.580;11.392;2024-02-21T05:40:34;8.80;;;4.45;;
32152;SDS011;18656;50.580;11.392;2024-02-21T05:43:01;14.25;;;4.63;;
32152;SDS011;18656;50.580;11.392;2024-02-21T05:45:28;11.07;;;4.63;;
32152;SDS011;18656;50.580;11.392;2024-02-21T05:47:55;10.80;;;4.25;;
32152;SDS011;18656;50.580;11.392;2024-02-21T05:50:26;9.90;;;4.35;;
32152;SDS011;18656;50.580;11.392;2024-02-21T05:52:54;15.45;;;4.25;;
32152;SDS011;18656;50.580;11.392;2024-02-21T05:55:22;10.27;;;4.50;;
32152;SDS011;18656;50.580;11.392;2024-02-21T05:57:49;11.00;;;4.38;;
32152;SDS011;18656;50.580;11.392;2024-02-21T06:00:17;9.75;;;4.05;;
32152;SDS011;18656;50.580;11.392;2024-02-21T06:02:44;10.60;;;4.43;;
32152;SDS011;18656;50.580;11.392;2024-02-21T06:05:11;10.27;;;4.20;;
32152;SDS011;18656;50.580;11.392;2024-02-21T06:07:38;14.38;;;4.60;;
32152;SDS011;18656;50.580;11.392;2024-02-21T06:10:06;13.68;;;4.57;;
32152;SDS011;18656;50.580;11.392;2024-02-21T06:12:33;12.18;;;4.47;;
32152;SDS011;18656;50.580;11.392;2024-02-21T06:15:01;16.40;;;4.40;;
32152;SDS011;18656;50.580;11.392;2024-02-21T06:17:28;14.85;;;4.28;;
32152;SDS011;18656;50.580;11.392;2024-02-21T06:19:56;11.20;;;4.20;;
32152;SDS011;18656;50.580;11.392;2024-02-21T06:22:23;13.07;;;5.00;;
32152;SDS011;18656;50.580;11.392;2024-02-21T06:24:50;10.05;;;3.90;;
32152;SDS011;18656;50.580;11.392;2024-02-21T06:27:17;13.90;;;4.47;;
32152;SDS011;18656;50.580;11.392;2024-02-21T06:29:45;9.70;;;4.68;;
32152;SDS011;18656;50.580;11.392;2024-02-21T06:32:12;13.07;;;4.60;;
32152;SDS011;18656;50.580;11.392;2024-02-21T06:34:39;10.10;;;3.97;;
32152;SDS011;18656;50.580;11.392;2024-02-21T06:37:07;11.88;;;5.47;;
32152;SDS011;18656;50.580;11.392;2024-02-21T06:39:34;13.75;;;5.68;;
32152;SDS011;18656;50.580;11.392;2024-02-21T06:42:04;10.20;;;4.82;;
32152;SDS011;18656;50.580;11.392;2024-02-21T06:44:31;13.00;;;5.05;;
32152;SDS011;18656;50.580;11.392;2024-02-21T06:47:02;13.82;;;4.75;;
32152;SDS011;18656;50.580;11.392;2024-02-21T06:49:30;13.35;;;5.03;;
32152;SDS011;18656;50.580;11.392;2024-02-21T06:51:57;12.30;;;4.97;;
32152;SDS011;18656;50.580;11.392;2024-02-21T06:54:26;13.93;;;5.65;;
32152;SDS011;18656;50.580;11.392;2024-02-21T06:56:53;10.05;;;4.95;;
32152;SDS011;18656;50.580;11.392;2024-02-21T06:59:20;12.45;;;4.82;;
32152;SDS011;18656;50.580;11.392;2024-02-21T07:01:53;10.85;;;4.80;;
32152;SDS011;18656;50.580;11.392;2024-02-21T07:04:21;13.40;;;4.70;;
32152;SDS011;18656;50.580;11.392;2024-02-21T07:06:49;11.63;;;5.05;;
32152;SDS011;18656;50.580;11.392;2024-02-21T07:09:17;12.70;;;4.70;;
32152;SDS011;18656;50.580;11.392;2024-02-21T07:11:44;13.55;;;3.92;;
32152;SDS011;18656;50.580;11.392;2024-02-21T07:14:11;13.20;;;4.38;;
32152;SDS011;18656;50.580;11.392;2024-02-21T07:16:39;11.25;;;3.95;;
32152;SDS011;18656;50.580;11.392;2024-02-21T07:19:06;11.70;;;3.90;;
32152;SDS011;18656;50.580;11.392;2024-02-21T07:21:33;13.52;;;4.20;;
32152;SDS011;18656;50.580;11.392;2024-02-21T07:24:01;8.82;;;4.25;;
32152;SDS011;18656;50.580;11.392;2024-02-21T07:26:28;11.68;;;3.40;;
32152;SDS011;18656;50.580;11.392;2024-02-21T07:28:55;11.82;;;4.10;;
32152;SDS011;18656;50.580;11.392;2024-02-21T07:31:22;12.63;;;3.78;;
32152;SDS011;18656;50.580;11.392;2024-02-21T07:33:50;10.60;;;4.38;;
32152;SDS011;18656;50.580;11.392;2024-02-21T07:36:25;11.77;;;4.22;;
32152;SDS011;18656;50.580;11.392;2024-02-21T07:38:52;11.35;;;4.00;;
32152;SDS011;18656;50.580;11.392;2024-02-21T07:41:19;8.65;;;3.90;;
32152;SDS011;18656;50.580;11.392;2024-02-21T07:43:46;11.60;;;4.47;;
32152;SDS011;18656;50.580;11.392;2024-02-21T07:46:14;10.45;;;4.40;;
32152;SDS011;18656;50.580;11.392;2024-02-21T07:48:42;11.05;;;4.25;;
32152;SDS011;18656;50.580;11.392;2024-02-21T07:51:09;10.05;;;4.72;;
32152;SDS011;18656;50.580;11.392;2024-02-21T07:53:36;12.85;;;5.18;;
32152;SDS011;18656;50.580;11.392;2024-02-21T07:56:04;11.77;;;4.57;;
32152;SDS011;18656;50.580;11.392;2024-02-21T07:58:31;14.27;;;5.35;;
32152;SDS011;18656;50.580;11.392;2024-02-21T08:00:58;13.20;;;5.32;;
32152;SDS011;18656;50.580;11.392;2024-02-21T08:03:26;13.68;;;4.65;;
32152;SDS011;18656;50.580;11.392;2024-02-21T08:05:53;13.05;;;4.75;;
32152;SDS011;18656;50.580;11.392;2024-02-21T08:08:20;8.40;;;4.47;;
32152;SDS011;18656;50.580;11.392;2024-02-21T08:10:51;10.85;;;4.70;;
32152;SDS011;18656;50.580;11.392;2024-02-21T08:13:19;13.15;;;4.70;;
32152;SDS011;18656;50.580;11.392;2024-02-21T08:15:47;9.50;;;4.75;;
32152;SDS011;18656;50.580;11.392;2024-02-21T08:18:14;9.50;;;4.45;;
32152;SDS011;18656;50.580;11.392;2024-02-21T08:20:42;11.40;;;4.30;;
32152;SDS011;18656;50.580;11.392;2024-02-21T08:23:09;10.00;;;4.45;;
32152;SDS011;18656;50.580;11.392;2024-02-21T08:25:36;12.00;;;4.85;;
32152;SDS011;18656;50.580;11.392;2024-02-21T08:28:04;10.95;;;4.72;;
32152;SDS011;18656;50.580;11.392;2024-02-21T08:30:32;9.25;;;4.47;;
32152;SDS011;18656;50.580;11.392;2024-02-21T08:33:00;11.35;;;4.80;;
32152;SDS011;18656;50.580;11.392;2024-02-21T08:35:27;11.95;;;4.57;;
32152;SDS011;18656;50.580;11.392;2024-02-21T08:37:54;16.23;;;6.00;;
32152;SDS011;18656;50.580;11.392;2024-02-21T08:40:22;10.50;;;4.30;;
32152;SDS011;18656;50.580;11.392;2024-02-21T08:42:49;9.38;;;3.80;;
32152;SDS011;18656;50.580;11.392;2024-02-21T08:45:16;7.40;;;3.97;;
32152;SDS011;18656;50.580;11.392;2024-02-21T08:47:43;9.60;;;3.92;;
32152;SDS011;18656;50.580;11.392;2024-02-21T08:50:11;9.38;;;3.50;;
32152;SDS011;18656;50.580;11.392;2024-02-21T08:52:53;6.47;;;3.13;;
32152;SDS011;18656;50.580;11.392;2024-02-21T08:55:21;9.88;;;3.35;;
32152;SDS011;18656;50.580;11.392;2024-02-21T08:57:48;11.35;;;3.53;;
32152;SDS011;18656;50.580;11.392;2024-02-21T09:00:16;9.68;;;3.08;;
32152;SDS011;18656;50.580;11.392;2024-02-21T09:02:44;9.05;;;2.92;;
32152;SDS011;18656;50.580;11.392;2024-02-21T09:05:11;5.97;;;2.80;;
32152;SDS011;18656;50.580;11.392;2024-02-21T09:07:38;8.25;;;2.92;;
32152;SDS011;18656;50.580;11.392;2024-02-21T09:10:06;8.40;;;3.63;;
32152;SDS011;18656;50.580;11.392;2024-02-21T09:12:33;6.80;;;3.53;;
32152;SDS011;18656;50.580;11.392;2024-02-21T09:15:01;7.07;;;3.08;;
32152;SDS011;18656;50.580;11.392;2024-02-21T09:17:28;7.47;;;2.83;;
32152;SDS011;18656;50.580;11.392;2024-02-21T09:19:56;7.93;;;3.20;;
32152;SDS011;18656;50.580;11.392;2024-02-21T09:22:26;7.47;;;3.30;;
32152;SDS011;18656;50.580;11.392;2024-02-21T09:24:54;6.95;;;3.33;;
32152;SDS011;18656;50.580;11.392;2024-02-21T09:27:21;9.20;;;2.80;;
32152;SDS011;18656;50.580;11.392;2024-02-21T09:29:48;10.43;;;3.50;;
32152;SDS011;18656;50.580;11.392;2024-02-21T09:32:16;7.53;;;3.03;;
32152;SDS011;18656;50.580;11.392;2024-02-21T09:34:43;8.00;;;2.88;;
32152;SDS011;18656;50.580;11.392;2024-02-21T09:37:11;7.70;;;3.33;;
32152;SDS011;18656;50.580;11.392;2024-02-21T09:39:39;5.57;;;2.88;;
32152;SDS011;18656;50.580;11.392;2024-02-21T09:42:06;8.25;;;3.38;;
32152;SDS011;18656;50.580;11.392;2024-02-21T09:44:36;15.70;;;3.60;;
32152;SDS011;18656;50.580;11.392;2024-02-21T09:49:58;9.50;;;3.38;;
32152;SDS011;18656;50.580;11.392;2024-02-21T09:52:27;8.20;;;3.45;;
32152;SDS011;18656;50.580;11.392;2024-02-21T09:54:54;8.60;;;3.08;;
32152;SDS011;18656;50.580;11.392;2024-02-21T09:57:23;7.57;;;3.10;;
32152;SDS011;18656;50.580;11.392;2024-02-21T09:59:51;6.28;;;3.25;;
32152;SDS011;18656;50.580;11.392;2024-02-21T10:02:19;9.70;;;3.20;;
32152;SDS011;18656;50.580;11.392;2024-02-21T10:04:47;7.32;;;3.22;;
32152;SDS011;18656;50.580;11.392;2024-02-21T10:07:14;7.28;;;3.25;;
32152;SDS011;18656;50.580;11.392;2024-02-21T10:09:41;9.98;;;3.42;;
32152;SDS011;18656;50.580;11.392;2024-02-21T10:12:11;11.32;;;3.58;;
32152;SDS011;18656;50.580;11.392;2024-02-21T10:14:40;10.30;;;4.03;;
32152;SDS011;18656;50.580;11.392;2024-02-21T10:17:08;11.55;;;3.28;;
32152;SDS011;18656;50.580;11.392;2024-02-21T10:19:37;13.10;;;3.40;;
32152;SDS011;18656;50.580;11.392;2024-02-21T10:22:07;11.02;;;3.60;;
32152;SDS011;18656;50.580;11.392;2024-02-21T10:24:35;9.40;;;3.47;;
32152;SDS011;18656;50.580;11.392;2024-02-21T10:27:05;7.65;;;3.00;;
32152;SDS011;18656;50.580;11.392;2024-02-21T10:29:38;6.53;;;2.92;;
32152;SDS011;18656;50.580;11.392;2024-02-21T10:32:07;8.98;;;3.20;;
32152;SDS011;18656;50.580;11.392;2024-02-21T10:34:35;11.25;;;3.25;;
32152;SDS011;18656;50.580;11.392;2024-02-21T10:37:03;8.27;;;2.92;;
32152;SDS011;18656;50.580;11.392;2024-02-21T10:39:37;8.20;;;3.00;;
32152;SDS011;18656;50.580;11.392;2024-02-21T10:42:05;9.35;;;2.70;;
32152;SDS011;18656;50.580;11.392;2024-02-21T10:44:36;7.50;;;2.92;;
32152;SDS011;18656;50.580;11.392;2024-02-21T10:47:07;10.13;;;3.35;;
32152;SDS011;18656;50.580;11.392;2024-02-21T10:49:37;8.68;;;2.90;;
32152;SDS011;18656;50.580;11.392;2024-02-21T10:52:07;5.28;;;2.70;;
32152;SDS011;18656;50.580;11.392;2024-02-21T10:54:44;5.30;;;2.50;;
32152;SDS011;18656;50.580;11.392;2024-02-21T10:57:16;7.93;;;3.13;;
32152;SDS011;18656;50.580;11.392;2024-02-21T10:59:44;6.90;;;2.63;;
32152;SDS011;18656;50.580;11.392;2024-02-21T11:02:12;6.85;;;2.72;;
32152;SDS011;18656;50.580;11.392;2024-02-21T11:04:40;8.20;;;2.97;;
32152;SDS011;18656;50.580;11.392;2024-02-21T11:07:08;7.05;;;2.42;;
32152;SDS011;18656;50.580;11.392;2024-02-21T11:09:37;6.28;;;2.75;;
32152;SDS011;18656;50.580;11.392;2024-02-21T11:12:05;9.43;;;2.47;;
32152;SDS011;18656;50.580;11.392;2024-02-21T11:14:33;7.40;;;3.03;;
32152;SDS011;18656;50.580;11.392;2024-02-21T11:17:15;11.23;;;2.87;;
32152;SDS011;18656;50.580;11.392;2024-02-21T11:19:43;8.55;;;2.50;;
32152;SDS011;18656;50.580;11.392;2024-02-21T11:22:15;6.40;;;2.78;;
32152;SDS011;18656;50.580;11.392;2024-02-21T11:24:43;8.35;;;2.65;;
32152;SDS011;18656;50.580;11.392;2024-02-21T11:27:14;34.05;;;4.25;;
32152;SDS011;18656;50.580;11.392;2024-02-21T11:29:42;8.30;;;2.90;;
32152;SDS011;18656;50.580;11.392;2024-02-21T11:32:10;8.00;;;2.70;;
32152;SDS011;18656;50.580;11.392;2024-02-21T11:34:38;8.13;;;2.75;;
32152;SDS011;18656;50.580;11.392;2024-02-21T11:37:15;7.65;;;2.40;;
32152;SDS011;18656;50.580;11.392;2024-02-21T11:39:42;8.75;;;2.25;;
32152;SDS011;18656;50.580;11.392;2024-02-21T11:42:09;6.25;;;2.30;;
32152;SDS011;18656;50.580;11.392;2024-02-21T11:44:38;6.97;;;2.60;;
32152;SDS011;18656;50.580;11.392;2024-02-21T11:47:09;10.00;;;2.53;;
32152;SDS011;18656;50.580;11.392;2024-02-21T11:49:37;7.93;;;2.67;;
32152;SDS011;18656;50.580;11.392;2024-02-21T11:52:07;5.22;;;2.10;;
32152;SDS011;18656;50.580;11.392;2024-02-21T11:54:34;5.78;;;2.00;;
32152;SDS011;18656;50.580;11.392;2024-02-21T11:57:02;7.18;;;2.13;;
32152;SDS011;18656;50.580;11.392;2024-02-21T11:59:30;7.72;;;2.20;;
32152;SDS011;18656;50.580;11.392;2024-02-21T12:01:58;6.40;;;2.13;;
32152;SDS011;18656;50.580;11.392;2024-02-21T12:04:26;5.90;;;2.15;;
32152;SDS011;18656;50.580;11.392;2024-02-21T12:06:55;6.55;;;2.38;;
32152;SDS011;18656;50.580;11.392;2024-02-21T12:09:22;6.03;;;2.15;;
32152;SDS011;18656;50.580;11.392;2024-02-21T12:11:57;15.38;;;2.60;;
32152;SDS011;18656;50.580;11.392;2024-02-21T12:14:25;6.43;;;2.20;;
32152;SDS011;18656;50.580;11.392;2024-02-21T12:16:52;6.20;;;2.20;;
32152;SDS011;18656;50.580;11.392;2024-02-21T12:19:20;5.25;;;1.88;;
32152;SDS011;18656;50.580;11.392;2024-02-21T12:21:48;6.32;;;1.95;;
32152;SDS011;18656;50.580;11.392;2024-02-21T12:24:22;4.97;;;1.80;;
32152;SDS011;18656;50.580;11.392;2024-02-21T12:26:53;5.10;;;1.95;;
32152;SDS011;18656;50.580;11.392;2024-02-21T12:29:20;6.28;;;2.10;;
32152;SDS011;18656;50.580;11.392;2024-02-21T12:31:49;5.68;;;2.38;;
32152;SDS011;18656;50.580;11.392;2024-02-21T12:34:16;4.82;;;1.98;;
32152;SDS011;18656;50.580;11.392;2024-02-21T12:36:56;9.90;;;2.33;;
32152;SDS011;18656;50.580;11.392;2024-02-21T12:39:23;5.15;;;1.83;;
32152;SDS011;18656;50.580;11.392;2024-02-21T12:41:51;11.93;;;2.40;;
32152;SDS011;18656;50.580;11.392;2024-02-21T12:44:18;4.35;;;2.22;;
32152;SDS011;18656;50.580;11.392;2024-02-21T12:46:45;4.40;;;2.15;;
32152;SDS011;18656;50.580;11.392;2024-02-21T12:49:18;6.90;;;2.00;;
32152;SDS011;18656;50.580;11.392;2024-02-21T12:51:45;4.25;;;1.70;;
32152;SDS011;18656;50.580;11.392;2024-02-21T12:54:15;5.82;;;1.75;;
32152;SDS011;18656;50.580;11.392;2024-02-21T12:56:42;4.57;;;2.30;;
32152;SDS011;18656;50.580;11.392;2024-02-21T12:59:10;13.60;;;2.08;;
32152;SDS011;18656;50.580;11.392;2024-02-21T13:01:37;10.25;;;2.40;;
32152;SDS011;18656;50.580;11.392;2024-02-21T13:04:05;5.50;;;1.88;;
32152;SDS011;18656;50.580;11.392;2024-02-21T13:06:32;7.07;;;2.15;;
32152;SDS011;18656;50.580;11.392;2024-02-21T13:09:00;6.47;;;1.70;;
32152;SDS011;18656;50.580;11.392;2024-02-21T13:14:00;5.10;;;1.77;;
32152;SDS011;18656;50.580;11.392;2024-02-21T13:16:28;6.60;;;1.85;;
32152;SDS011;18656;50.580;11.392;2024-02-21T13:18:55;4.47;;;1.75;;
32152;SDS011;18656;50.580;11.392;2024-02-21T13:21:23;5.47;;;1.40;;
32152;SDS011;18656;50.580;11.392;2024-02-21T13:23:50;5.50;;;1.60;;
32152;SDS011;18656;50.580;11.392;2024-02-21T13:26:17;6.05;;;2.15;;
32152;SDS011;18656;50.580;11.392;2024-02-21T13:28:46;8.65;;;2.10;;
32152;SDS011;18656;50.580;11.392;2024-02-21T13:31:14;7.07;;;1.95;;
32152;SDS011;18656;50.580;11.392;2024-02-21T13:33:42;4.90;;;1.88;;
32152;SDS011;18656;50.580;11.392;2024-02-21T13:36:13;5.85;;;2.17;;
32152;SDS011;18656;50.580;11.392;2024-02-21T13:38:40;6.70;;;1.75;;
32152;SDS011;18656;50.580;11.392;2024-02-21T13:41:07;7.10;;;2.22;;
32152;SDS011;18656;50.580;11.392;2024-02-21T13:43:34;4.95;;;1.88;;
32152;SDS011;18656;50.580;11.392;2024-02-21T13:46:02;6.43;;;1.80;;
32152;SDS011;18656;50.580;11.392;2024-02-21T13:48:31;4.13;;;1.50;;
32152;SDS011;18656;50.580;11.392;2024-02-21T13:51:00;4.82;;;2.25;;
32152;SDS011;18656;50.580;11.392;2024-02-21T13:53:28;5.03;;;1.85;;
32152;SDS011;18656;50.580;11.392;2024-02-21T13:55:55;5.38;;;1.42;;
32152;SDS011;18656;50.580;11.392;2024-02-21T13:58:23;4.80;;;1.80;;
32152;SDS011;18656;50.580;11.392;2024-02-21T14:00:52;7.72;;;1.73;;
32152;SDS011;18656;50.580;11.392;2024-02-21T14:03:20;4.13;;;1.50;;
32152;SDS011;18656;50.580;11.392;2024-02-21T14:05:47;6.10;;;1.83;;
32152;SDS011;18656;50.580;11.392;2024-02-21T14:08:15;5.93;;;1.98;;
32152;SDS011;18656;50.580;11.392;2024-02-21T14:10:42;9.15;;;1.73;;
32152;SDS011;18656;50.580;11.392;2024-02-21T14:13:10;5.00;;;1.65;;
32152;SDS011;18656;50.580;11.392;2024-02-21T14:15:38;4.25;;;1.83;;
32152;SDS011;18656;50.580;11.392;2024-02-21T14:18:07;5.32;;;1.70;;
32152;SDS011;18656;50.580;11.392;2024-02-21T14:20:36;4.80;;;1.60;;
32152;SDS011;18656;50.580;11.392;2024-02-21T14:23:03;7.60;;;1.80;;
32152;SDS011;18656;50.580;11.392;2024-02-21T14:25:31;8.05;;;1.92;;
32152;SDS011;18656;50.580;11.392;2024-02-21T14:28:00;6.03;;;2.15;;
32152;SDS011;18656;50.580;11.392;2024-02-21T14:30:27;6.28;;;2.17;;
32152;SDS011;18656;50.580;11.392;2024-02-21T14:32:54;5.50;;;1.60;;
32152;SDS011;18656;50.580;11.392;2024-02-21T14:35:22;7.90;;;1.70;;